sensor_id;sensor_type;location;lat;lon;timestamp;pressure;altitude;pressure_sealevel;temperature;humidity
63009;BME280;49099;28.428;-16.488;2023-02-28T00:01:24;99182.94;;;18.77;57.05
63009;BME280;49099;28.428;-16.488;2023-02-28T00:03:52;99183.94;;;18.81;56.86
63009;BME280;49099;28.428;-16.488;2023-02-28T00:06:19;99183.34;;;18.84;56.90
63009;BME280;49099;28.428;-16.488;2023-02-28T00:08:47;99193.19;;;18.88;57.44
63009;BME280;49099;28.428;-16.488;2023-02-28T00:11:15;99189.09;;;18.91;58.08
63009;BME280;49099;28.428;-16.488;2023-02-28T00:13:44;99183.34;;;18.84;56.96
63009;BME280;49099;28.428;-16.488;2023-02-28T00:16:16;99195.28;;;18.78;57.52
63009;BME280;49099;28.428;-16.488;2023-02-28T00:18:43;99195.69;;;18.71;57.66
63009;BME280;49099;28.428;-16.488;2023-02-28T00:21:10;99197.09;;;18.69;57.58
63009;BME280;49099;28.428;-16.488;2023-02-28T00:23:38;99199.84;;;18.63;57.75
63009;BME280;49099;28.428;-16.488;2023-02-28T00:26:05;99205.44;;;18.53;58.02
63009;BME280;49099;28.428;-16.488;2023-02-28T00:28:33;99209.00;;;18.49;58.84
63009;BME280;49099;28.428;-16.488;2023-02-28T00:31:00;99207.78;;;18.41;58.99
63009;BME280;49099;28.428;-16.488;2023-02-28T00:33:27;99199.34;;;18.34;58.96
63009;BME280;49099;28.428;-16.488;2023-02-28T00:36:09;99201.53;;;18.32;59.46
63009;BME280;49099;28.428;-16.488;2023-02-28T00:38:38;99208.56;;;18.28;60.05
63009;BME280;49099;28.428;-16.488;2023-02-28T00:41:05;99205.38;;;18.26;60.24
63009;BME280;49099;28.428;-16.488;2023-02-28T00:43:34;99203.41;;;18.18;61.00
63009;BME280;49099;28.428;-16.488;2023-02-28T00:46:03;99198.63;;;18.15;60.44
63009;BME280;49099;28.428;-16.488;2023-02-28T00:48:30;99190.84;;;18.13;61.02
63009;BME280;49099;28.428;-16.488;2023-02-28T00:50:57;99181.81;;;18.23;61.34
63009;BME280;49099;28.428;-16.488;2023-02-28T00:53:25;99182.72;;;18.32;61.24
63009;BME280;49099;28.428;-16.488;2023-02-28T00:55:52;99181.53;;;18.38;60.25
63009;BME280;49099;28.428;-16.488;2023-02-28T00:58:19;99172.97;;;18.36;60.65
63009;BME280;49099;28.428;-16.488;2023-02-28T01:00:46;99170.59;;;18.34;59.95
63009;BME280;49099;28.428;-16.488;2023-02-28T01:03:17;99171.38;;;18.35;59.96
63009;BME280;49099;28.428;-16.488;2023-02-28T01:05:45;99161.66;;;18.39;60.76
63009;BME280;49099;28.428;-16.488;2023-02-28T01:08:13;99166.53;;;18.37;60.11
63009;BME280;49099;28.428;-16.488;2023-02-28T01:10:41;99166.00;;;18.35;60.84
63009;BME280;49099;28.428;-16.488;2023-02-28T01:13:08;99157.88;;;18.40;61.10
63009;BME280;49099;28.428;-16.488;2023-02-28T01:15:35;99161.16;;;18.37;59.83
63009;BME280;49099;28.428;-16.488;2023-02-28T01:18:02;99158.25;;;18.33;59.88
63009;BME280;49099;28.428;-16.488;2023-02-28T01:20:30;99161.94;;;18.37;59.46
63009;BME280;49099;28.428;-16.488;2023-02-28T01:22:57;99154.88;;;18.28;58.72
63009;BME280;49099;28.428;-16.488;2023-02-28T01:25:24;99163.13;;;18.18;58.45
63009;BME280;49099;28.428;-16.488;2023-02-28T01:27:51;99157.34;;;18.10;58.36
63009;BME280;49099;28.428;-16.488;2023-02-28T01:30:18;99175.56;;;18.14;58.76
63009;BME280;49099;28.428;-16.488;2023-02-28T01:32:46;99171.47;;;18.16;58.66
63009;BME280;49099;28.428;-16.488;2023-02-28T01:35:13;99178.75;;;18.16;58.48
63009;BME280;49099;28.428;-16.488;2023-02-28T01:37:40;99168.50;;;18.18;59.53
63009;BME280;49099;28.428;-16.488;2023-02-28T01:40:08;99171.66;;;18.20;58.97
63009;BME280;49099;28.428;-16.488;2023-02-28T01:42:35;99174.97;;;18.17;59.86
63009;BME280;49099;28.428;-16.488;2023-02-28T01:47:48;99175.34;;;18.10;59.57
63009;BME280;49099;28.428;-16.488;2023-02-28T01:50:20;99167.78;;;17.98;60.46
63009;BME280;49099;28.428;-16.488;2023-02-28T01:52:48;99172.22;;;17.89;60.77
63009;BME280;49099;28.428;-16.488;2023-02-28T01:55:18;99174.28;;;17.78;60.35
63009;BME280;49099;28.428;-16.488;2023-02-28T01:57:52;99169.50;;;17.75;58.83
63009;BME280;49099;28.428;-16.488;2023-02-28T02:00:23;99166.69;;;17.67;59.92
63009;BME280;49099;28.428;-16.488;2023-02-28T02:02:54;99159.13;;;17.69;60.22
63009;BME280;49099;28.428;-16.488;2023-02-28T02:05:28;99165.03;;;17.71;60.03
63009;BME280;49099;28.428;-16.488;2023-02-28T02:08:06;99164.94;;;17.76;60.12
63009;BME280;49099;28.428;-16.488;2023-02-28T02:10:43;99155.19;;;17.80;59.78
63009;BME280;49099;28.428;-16.488;2023-02-28T02:13:20;99146.66;;;17.78;58.97
63009;BME280;49099;28.428;-16.488;2023-02-28T02:18:44;99158.63;;;17.67;58.32
63009;BME280;49099;28.428;-16.488;2023-02-28T02:21:41;99163.34;;;17.75;59.12
63009;BME280;49099;28.428;-16.488;2023-02-28T02:27:23;99154.41;;;17.79;56.74
63009;BME280;49099;28.428;-16.488;2023-02-28T02:43:49;99140.41;;;17.96;58.14
63009;BME280;49099;28.428;-16.488;2023-02-28T02:46:23;99142.53;;;17.99;57.98
63009;BME280;49099;28.428;-16.488;2023-02-28T02:48:56;99137.94;;;17.86;58.55
63009;BME280;49099;28.428;-16.488;2023-02-28T02:51:25;99133.03;;;17.74;59.30
63009;BME280;49099;28.428;-16.488;2023-02-28T02:54:05;99135.50;;;17.71;59.78
63009;BME280;49099;28.428;-16.488;2023-02-28T02:56:35;99138.22;;;17.66;59.46
63009;BME280;49099;28.428;-16.488;2023-02-28T02:59:06;99137.03;;;17.58;59.44
63009;BME280;49099;28.428;-16.488;2023-02-28T03:01:35;99142.38;;;17.58;59.59
63009;BME280;49099;28.428;-16.488;2023-02-28T03:04:10;99142.69;;;17.57;60.68
63009;BME280;49099;28.428;-16.488;2023-02-28T03:06:39;99139.63;;;17.63;59.45
63009;BME280;49099;28.428;-16.488;2023-02-28T03:09:07;99134.50;;;17.67;59.95
63009;BME280;49099;28.428;-16.488;2023-02-28T03:11:35;99140.28;;;17.74;60.51
63009;BME280;49099;28.428;-16.488;2023-02-28T03:20:07;99122.84;;;17.90;60.98
63009;BME280;49099;28.428;-16.488;2023-02-28T03:23:29;99116.94;;;17.88;60.79
63009;BME280;49099;28.428;-16.488;2023-02-28T03:26:03;99110.91;;;17.83;61.49
63009;BME280;49099;28.428;-16.488;2023-02-28T03:28:41;99106.31;;;17.83;61.20
63009;BME280;49099;28.428;-16.488;2023-02-28T03:33:44;99099.38;;;17.82;60.70
63009;BME280;49099;28.428;-16.488;2023-02-28T03:36:16;99099.47;;;17.77;60.71
63009;BME280;49099;28.428;-16.488;2023-02-28T03:38:49;99088.72;;;17.77;60.33
63009;BME280;49099;28.428;-16.488;2023-02-28T03:41:25;99086.53;;;17.79;60.78
63009;BME280;49099;28.428;-16.488;2023-02-28T03:44:01;99094.38;;;17.89;60.50
63009;BME280;49099;28.428;-16.488;2023-02-28T03:46:36;99085.66;;;17.84;59.95
63009;BME280;49099;28.428;-16.488;2023-02-28T03:49:16;99091.81;;;17.84;60.54
63009;BME280;49099;28.428;-16.488;2023-02-28T03:51:45;99081.66;;;17.81;59.88
63009;BME280;49099;28.428;-16.488;2023-02-28T03:54:28;99096.16;;;17.80;58.79
63009;BME280;49099;28.428;-16.488;2023-02-28T03:57:27;99100.75;;;17.79;59.72
63009;BME280;49099;28.428;-16.488;2023-02-28T04:00:27;99113.38;;;17.79;59.01
63009;BME280;49099;28.428;-16.488;2023-02-28T04:02:57;99108.91;;;17.74;59.28
63009;BME280;49099;28.428;-16.488;2023-02-28T04:05:24;99113.44;;;17.74;59.50
63009;BME280;49099;28.428;-16.488;2023-02-28T04:07:52;99119.91;;;17.73;59.22
63009;BME280;49099;28.428;-16.488;2023-02-28T04:10:21;99114.63;;;17.68;59.50
63009;BME280;49099;28.428;-16.488;2023-02-28T04:12:48;99129.78;;;17.59;59.62
63009;BME280;49099;28.428;-16.488;2023-02-28T04:15:15;99124.94;;;17.61;60.33
63009;BME280;49099;28.428;-16.488;2023-02-28T04:17:42;99119.63;;;17.55;61.53
63009;BME280;49099;28.428;-16.488;2023-02-28T04:20:10;99128.47;;;17.56;61.45
63009;BME280;49099;28.428;-16.488;2023-02-28T04:22:38;99130.66;;;17.54;61.70
63009;BME280;49099;28.428;-16.488;2023-02-28T04:25:05;99114.56;;;17.54;62.13
63009;BME280;49099;28.428;-16.488;2023-02-28T04:27:33;99112.19;;;17.52;62.39
63009;BME280;49099;28.428;-16.488;2023-02-28T04:30:00;99123.50;;;17.49;61.79
63009;BME280;49099;28.428;-16.488;2023-02-28T04:32:27;99117.44;;;17.44;61.46
63009;BME280;49099;28.428;-16.488;2023-02-28T04:34:55;99111.91;;;17.35;60.69
63009;BME280;49099;28.428;-16.488;2023-02-28T04:37:22;99111.78;;;17.26;60.36
63009;BME280;49099;28.428;-16.488;2023-02-28T04:39:54;99112.19;;;17.20;60.79
63009;BME280;49099;28.428;-16.488;2023-02-28T04:42:22;99100.38;;;17.21;61.28
63009;BME280;49099;28.428;-16.488;2023-02-28T04:44:49;99103.53;;;17.23;61.15
63009;BME280;49099;28.428;-16.488;2023-02-28T04:47:16;99086.66;;;17.22;60.53
63009;BME280;49099;28.428;-16.488;2023-02-28T04:49:43;99092.53;;;17.24;60.40
63009;BME280;49099;28.428;-16.488;2023-02-28T04:52:10;99092.22;;;17.26;60.95
63009;BME280;49099;28.428;-16.488;2023-02-28T04:54:37;99098.69;;;17.25;61.28
63009;BME280;49099;28.428;-16.488;2023-02-28T04:57:05;99093.63;;;17.23;60.84
63009;BME280;49099;28.428;-16.488;2023-02-28T04:59:33;99110.31;;;17.34;60.63
63009;BME280;49099;28.428;-16.488;2023-02-28T05:02:01;99122.50;;;17.45;60.88
63009;BME280;49099;28.428;-16.488;2023-02-28T05:04:34;99118.53;;;17.57;60.40
63009;BME280;49099;28.428;-16.488;2023-02-28T05:07:02;99123.84;;;17.62;60.24
63009;BME280;49099;28.428;-16.488;2023-02-28T05:09:29;99116.09;;;17.60;59.67
63009;BME280;49099;28.428;-16.488;2023-02-28T05:11:57;99127.09;;;17.59;60.26
63009;BME280;49099;28.428;-16.488;2023-02-28T05:14:24;99119.72;;;17.50;60.07
63009;BME280;49099;28.428;-16.488;2023-02-28T05:16:52;99115.38;;;17.54;61.12
63009;BME280;49099;28.428;-16.488;2023-02-28T05:19:19;99116.97;;;17.55;61.89
63009;BME280;49099;28.428;-16.488;2023-02-28T05:21:51;99122.50;;;17.45;61.65
63009;BME280;49099;28.428;-16.488;2023-02-28T05:24:19;99148.72;;;17.48;61.37
63009;BME280;49099;28.428;-16.488;2023-02-28T05:26:51;99156.88;;;17.43;60.87
63009;BME280;49099;28.428;-16.488;2023-02-28T05:29:19;99146.50;;;17.37;61.02
63009;BME280;49099;28.428;-16.488;2023-02-28T05:31:46;99139.81;;;17.34;60.90
63009;BME280;49099;28.428;-16.488;2023-02-28T05:34:14;99160.78;;;17.32;61.69
63009;BME280;49099;28.428;-16.488;2023-02-28T05:36:42;99168.88;;;17.27;61.33
63009;BME280;49099;28.428;-16.488;2023-02-28T05:39:09;99171.50;;;17.32;61.95
63009;BME280;49099;28.428;-16.488;2023-02-28T05:41:42;99181.56;;;17.40;61.57
63009;BME280;49099;28.428;-16.488;2023-02-28T05:44:10;99175.63;;;17.43;61.71
63009;BME280;49099;28.428;-16.488;2023-02-28T05:46:38;99163.22;;;17.47;61.90
63009;BME280;49099;28.428;-16.488;2023-02-28T05:49:05;99156.41;;;17.55;62.51
63009;BME280;49099;28.428;-16.488;2023-02-28T05:51:32;99165.91;;;17.47;62.92
63009;BME280;49099;28.428;-16.488;2023-02-28T05:54:01;99160.72;;;17.37;62.84
63009;BME280;49099;28.428;-16.488;2023-02-28T05:56:28;99150.03;;;17.32;62.41
63009;BME280;49099;28.428;-16.488;2023-02-28T05:58:55;99145.28;;;17.29;62.17
63009;BME280;49099;28.428;-16.488;2023-02-28T06:03:53;99151.22;;;17.26;62.29
63009;BME280;49099;28.428;-16.488;2023-02-28T06:06:20;99159.13;;;17.36;60.69
63009;BME280;49099;28.428;-16.488;2023-02-28T06:08:47;99168.31;;;17.30;60.04
63009;BME280;49099;28.428;-16.488;2023-02-28T06:11:14;99173.84;;;17.20;60.19
63009;BME280;49099;28.428;-16.488;2023-02-28T06:13:42;99179.56;;;17.13;60.52
63009;BME280;49099;28.428;-16.488;2023-02-28T06:16:11;99183.97;;;17.23;60.31
63009;BME280;49099;28.428;-16.488;2023-02-28T06:18:38;99197.88;;;17.25;61.48
63009;BME280;49099;28.428;-16.488;2023-02-28T06:21:05;99190.94;;;17.24;60.29
63009;BME280;49099;28.428;-16.488;2023-02-28T06:23:33;99186.22;;;17.16;60.66
63009;BME280;49099;28.428;-16.488;2023-02-28T06:26:00;99184.47;;;17.06;60.68
63009;BME280;49099;28.428;-16.488;2023-02-28T06:28:27;99191.78;;;17.01;60.52
63009;BME280;49099;28.428;-16.488;2023-02-28T06:30:54;99184.84;;;16.99;60.67
63009;BME280;49099;28.428;-16.488;2023-02-28T06:33:21;99185.34;;;17.02;60.76
63009;BME280;49099;28.428;-16.488;2023-02-28T06:35:52;99182.66;;;17.02;60.02
63009;BME280;49099;28.428;-16.488;2023-02-28T06:38:19;99187.22;;;17.01;60.25
63009;BME280;49099;28.428;-16.488;2023-02-28T06:40:54;99191.19;;;17.04;59.56
63009;BME280;49099;28.428;-16.488;2023-02-28T06:43:21;99192.38;;;16.97;59.70
63009;BME280;49099;28.428;-16.488;2023-02-28T06:45:49;99191.94;;;16.90;59.83
63009;BME280;49099;28.428;-16.488;2023-02-28T06:48:16;99195.09;;;16.92;60.08
63009;BME280;49099;28.428;-16.488;2023-02-28T06:50:44;99195.09;;;16.92;60.17
63009;BME280;49099;28.428;-16.488;2023-02-28T06:53:11;99196.94;;;16.97;60.72
63009;BME280;49099;28.428;-16.488;2023-02-28T06:55:39;99191.78;;;17.01;61.48
63009;BME280;49099;28.428;-16.488;2023-02-28T06:58:06;99194.16;;;17.02;62.06
63009;BME280;49099;28.428;-16.488;2023-02-28T07:00:45;99196.34;;;17.00;62.66
63009;BME280;49099;28.428;-16.488;2023-02-28T07:03:13;99181.06;;;17.01;62.93
63009;BME280;49099;28.428;-16.488;2023-02-28T07:05:42;99176.22;;;17.03;63.42
63009;BME280;49099;28.428;-16.488;2023-02-28T07:08:09;99179.91;;;17.07;63.57
63009;BME280;49099;28.428;-16.488;2023-02-28T07:10:39;99174.56;;;17.07;63.80
63009;BME280;49099;28.428;-16.488;2023-02-28T07:13:07;99171.38;;;17.05;63.60
63009;BME280;49099;28.428;-16.488;2023-02-28T07:15:36;99166.00;;;17.05;64.09
63009;BME280;49099;28.428;-16.488;2023-02-28T07:18:08;99164.41;;;17.04;64.49
63009;BME280;49099;28.428;-16.488;2023-02-28T07:20:35;99163.41;;;16.99;64.10
63009;BME280;49099;28.428;-16.488;2023-02-28T07:23:02;99167.16;;;16.98;63.12
63009;BME280;49099;28.428;-16.488;2023-02-28T07:25:29;99157.81;;;16.96;61.89
63009;BME280;49099;28.428;-16.488;2023-02-28T07:27:56;99162.94;;;16.92;61.19
63009;BME280;49099;28.428;-16.488;2023-02-28T07:30:25;99163.75;;;16.93;60.36
63009;BME280;49099;28.428;-16.488;2023-02-28T07:32:52;99160.78;;;16.94;60.22
63009;BME280;49099;28.428;-16.488;2023-02-28T07:35:23;99174.63;;;17.02;60.59
63009;BME280;49099;28.428;-16.488;2023-02-28T07:37:50;99168.16;;;17.03;60.42
63009;BME280;49099;28.428;-16.488;2023-02-28T07:40:18;99175.06;;;17.09;60.67
63009;BME280;49099;28.428;-16.488;2023-02-28T07:42:45;99191.06;;;17.14;60.61
63009;BME280;49099;28.428;-16.488;2023-02-28T07:45:12;99182.69;;;17.20;60.91
63009;BME280;49099;28.428;-16.488;2023-02-28T07:47:39;99189.28;;;17.28;61.07
63009;BME280;49099;28.428;-16.488;2023-02-28T07:50:10;99183.81;;;17.33;60.89
63009;BME280;49099;28.428;-16.488;2023-02-28T07:52:47;99188.63;;;17.36;61.35
63009;BME280;49099;28.428;-16.488;2023-02-28T07:55:14;99194.78;;;17.37;61.39
63009;BME280;49099;28.428;-16.488;2023-02-28T07:57:43;99204.09;;;17.39;61.53
63009;BME280;49099;28.428;-16.488;2023-02-28T08:00:11;99208.31;;;17.45;60.85
63009;BME280;49099;28.428;-16.488;2023-02-28T08:02:39;99214.69;;;17.49;60.45
63009;BME280;49099;28.428;-16.488;2023-02-28T08:05:07;99217.59;;;17.53;59.79
63009;BME280;49099;28.428;-16.488;2023-02-28T08:07:34;99224.25;;;17.55;60.07
63009;BME280;49099;28.428;-16.488;2023-02-28T08:10:02;99218.50;;;17.62;60.29
63009;BME280;49099;28.428;-16.488;2023-02-28T08:12:29;99209.19;;;17.60;60.18
63009;BME280;49099;28.428;-16.488;2023-02-28T08:14:56;99212.91;;;17.59;60.23
63009;BME280;49099;28.428;-16.488;2023-02-28T08:17:29;99222.84;;;17.58;59.37
63009;BME280;49099;28.428;-16.488;2023-02-28T08:19:56;99209.38;;;17.63;59.63
63009;BME280;49099;28.428;-16.488;2023-02-28T08:22:23;99221.63;;;17.69;59.83
63009;BME280;49099;28.428;-16.488;2023-02-28T08:24:50;99212.22;;;17.72;60.03
63009;BME280;49099;28.428;-16.488;2023-02-28T08:27:17;99213.81;;;17.73;61.03
63009;BME280;49099;28.428;-16.488;2023-02-28T08:29:44;99222.59;;;17.78;61.52
63009;BME280;49099;28.428;-16.488;2023-02-28T08:32:12;99222.81;;;17.82;61.10
63009;BME280;49099;28.428;-16.488;2023-02-28T08:34:54;99233.75;;;17.86;60.72
63009;BME280;49099;28.428;-16.488;2023-02-28T08:37:21;99234.34;;;17.83;61.01
63009;BME280;49099;28.428;-16.488;2023-02-28T08:39:48;99247.66;;;17.88;61.39
63009;BME280;49099;28.428;-16.488;2023-02-28T08:42:16;99254.84;;;17.92;61.36
63009;BME280;49099;28.428;-16.488;2023-02-28T08:44:43;99250.75;;;17.95;62.81
63009;BME280;49099;28.428;-16.488;2023-02-28T08:47:10;99253.66;;;17.98;62.61
63009;BME280;49099;28.428;-16.488;2023-02-28T08:49:37;99260.03;;;18.02;62.82
63009;BME280;49099;28.428;-16.488;2023-02-28T08:52:05;99259.47;;;18.05;63.23
63009;BME280;49099;28.428;-16.488;2023-02-28T08:54:32;99262.03;;;18.10;63.94
63009;BME280;49099;28.428;-16.488;2023-02-28T08:57:01;99259.34;;;18.10;63.86
63009;BME280;49099;28.428;-16.488;2023-02-28T08:59:29;99278.56;;;18.18;64.55
63009;BME280;49099;28.428;-16.488;2023-02-28T09:01:56;99270.59;;;18.13;64.73
63009;BME280;49099;28.428;-16.488;2023-02-28T09:04:23;99264.16;;;18.14;64.22
63009;BME280;49099;28.428;-16.488;2023-02-28T09:06:51;99267.63;;;18.14;64.13
63009;BME280;49099;28.428;-16.488;2023-02-28T09:09:18;99269.00;;;18.12;64.72
63009;BME280;49099;28.428;-16.488;2023-02-28T09:11:45;99277.28;;;18.15;64.12
63009;BME280;49099;28.428;-16.488;2023-02-28T09:14:13;99271.81;;;18.20;64.72
63009;BME280;49099;28.428;-16.488;2023-02-28T09:16:40;99280.88;;;18.24;65.92
63009;BME280;49099;28.428;-16.488;2023-02-28T09:19:10;99281.38;;;18.26;66.74
63009;BME280;49099;28.428;-16.488;2023-02-28T09:21:37;99285.94;;;18.26;66.71
63009;BME280;49099;28.428;-16.488;2023-02-28T09:24:05;99281.19;;;18.23;66.83
63009;BME280;49099;28.428;-16.488;2023-02-28T09:26:32;99293.50;;;18.24;67.03
63009;BME280;49099;28.428;-16.488;2023-02-28T09:29:09;99284.06;;;18.26;67.13
63009;BME280;49099;28.428;-16.488;2023-02-28T09:31:36;99292.34;;;18.30;67.40
63009;BME280;49099;28.428;-16.488;2023-02-28T09:34:04;99290.16;;;18.32;67.72
63009;BME280;49099;28.428;-16.488;2023-02-28T09:36:31;99286.38;;;18.33;68.32
63009;BME280;49099;28.428;-16.488;2023-02-28T09:39:11;99299.72;;;18.38;69.18
63009;BME280;49099;28.428;-16.488;2023-02-28T09:41:44;99300.72;;;18.42;68.52
63009;BME280;49099;28.428;-16.488;2023-02-28T09:46:57;99293.66;;;18.46;70.67
63009;BME280;49099;28.428;-16.488;2023-02-28T09:49:33;99302.22;;;18.48;71.01
63009;BME280;49099;28.428;-16.488;2023-02-28T09:52:12;99307.50;;;18.53;70.72
63009;BME280;49099;28.428;-16.488;2023-02-28T09:54:40;99298.66;;;18.53;70.71
63009;BME280;49099;28.428;-16.488;2023-02-28T09:57:16;99306.91;;;18.56;69.93
63009;BME280;49099;28.428;-16.488;2023-02-28T10:05:02;99322.88;;;18.67;69.47
63009;BME280;49099;28.428;-16.488;2023-02-28T10:13:02;99335.44;;;18.71;69.50
63009;BME280;49099;28.428;-16.488;2023-02-28T10:15:32;99339.69;;;18.72;69.12
63009;BME280;49099;28.428;-16.488;2023-02-28T10:18:06;99341.78;;;18.75;69.01
63009;BME280;49099;28.428;-16.488;2023-02-28T10:20:40;99352.75;;;18.79;68.60
63009;BME280;49099;28.428;-16.488;2023-02-28T10:23:21;99360.13;;;18.87;69.08
63009;BME280;49099;28.428;-16.488;2023-02-28T10:26:13;99356.25;;;18.93;69.40
63009;BME280;49099;28.428;-16.488;2023-02-28T10:28:43;99359.94;;;18.97;68.68
63009;BME280;49099;28.428;-16.488;2023-02-28T10:31:20;99362.63;;;18.97;69.08
63009;BME280;49099;28.428;-16.488;2023-02-28T10:33:48;99364.22;;;18.98;68.70
63009;BME280;49099;28.428;-16.488;2023-02-28T10:36:18;99364.72;;;19.00;68.52
63009;BME280;49099;28.428;-16.488;2023-02-28T10:38:47;99368.53;;;18.99;68.60
63009;BME280;49099;28.428;-16.488;2023-02-28T10:41:26;99370.00;;;19.05;68.41
63009;BME280;49099;28.428;-16.488;2023-02-28T10:44:14;99363.13;;;19.13;68.78
63009;BME280;49099;28.428;-16.488;2023-02-28T10:46:42;99360.03;;;19.19;68.51
63009;BME280;49099;28.428;-16.488;2023-02-28T10:51:42;99346.38;;;19.30;68.23
63009;BME280;49099;28.428;-16.488;2023-02-28T10:54:22;99338.03;;;19.31;67.66
63009;BME280;49099;28.428;-16.488;2023-02-28T10:59:43;99328.47;;;19.39;67.69
63009;BME280;49099;28.428;-16.488;2023-02-28T11:02:32;99323.47;;;19.46;68.07
63009;BME280;49099;28.428;-16.488;2023-02-28T11:05:32;99324.06;;;19.43;68.79
63009;BME280;49099;28.428;-16.488;2023-02-28T11:08:10;99319.78;;;19.42;69.19
63009;BME280;49099;28.428;-16.488;2023-02-28T11:10:54;99310.81;;;19.46;68.84
63009;BME280;49099;28.428;-16.488;2023-02-28T11:13:28;99313.69;;;19.50;69.09
63009;BME280;49099;28.428;-16.488;2023-02-28T11:15:58;99320.16;;;19.49;69.40
63009;BME280;49099;28.428;-16.488;2023-02-28T11:21:19;99322.88;;;19.49;70.49
63009;BME280;49099;28.428;-16.488;2023-02-28T11:23:49;99318.09;;;19.46;69.16
63009;BME280;49099;28.428;-16.488;2023-02-28T11:26:36;99312.28;;;19.53;69.34
63009;BME280;49099;28.428;-16.488;2023-02-28T11:29:25;99310.31;;;19.58;70.01
63009;BME280;49099;28.428;-16.488;2023-02-28T11:32:07;99306.91;;;19.66;68.66
63009;BME280;49099;28.428;-16.488;2023-02-28T11:34:39;99312.66;;;19.73;68.74
63009;BME280;49099;28.428;-16.488;2023-02-28T11:37:14;99324.91;;;19.80;69.19
63009;BME280;49099;28.428;-16.488;2023-02-28T11:39:43;99324.44;;;19.78;68.90
63009;BME280;49099;28.428;-16.488;2023-02-28T11:45:11;99341.56;;;19.68;69.52
63009;BME280;49099;28.428;-16.488;2023-02-28T11:47:48;99329.84;;;19.50;69.39
63009;BME280;49099;28.428;-16.488;2023-02-28T11:53:01;99337.41;;;19.48;69.96
63009;BME280;49099;28.428;-16.488;2023-02-28T12:01:29;99331.78;;;19.86;69.10
63009;BME280;49099;28.428;-16.488;2023-02-28T12:07:21;99321.63;;;20.27;66.63
63009;BME280;49099;28.428;-16.488;2023-02-28T12:10:06;99320.16;;;20.44;66.36
63009;BME280;49099;28.428;-16.488;2023-02-28T12:13:08;99308.06;;;20.64;65.41
63009;BME280;49099;28.428;-16.488;2023-02-28T12:21:31;99294.22;;;20.48;65.00
63009;BME280;49099;28.428;-16.488;2023-02-28T12:26:45;99281.97;;;20.19;64.84
63009;BME280;49099;28.428;-16.488;2023-02-28T12:29:26;99281.84;;;20.24;64.33
63009;BME280;49099;28.428;-16.488;2023-02-28T12:32:11;99269.34;;;20.28;65.71
63009;BME280;49099;28.428;-16.488;2023-02-28T12:34:47;99267.31;;;20.34;64.83
63009;BME280;49099;28.428;-16.488;2023-02-28T12:37:35;99258.91;;;20.36;66.15
63009;BME280;49099;28.428;-16.488;2023-02-28T12:40:11;99255.75;;;20.34;65.37
63009;BME280;49099;28.428;-16.488;2023-02-28T12:42:52;99243.63;;;20.22;66.02
63009;BME280;49099;28.428;-16.488;2023-02-28T12:45:24;99235.38;;;20.19;65.20
63009;BME280;49099;28.428;-16.488;2023-02-28T12:47:59;99236.59;;;20.13;64.52
63009;BME280;49099;28.428;-16.488;2023-02-28T12:50:27;99225.66;;;20.09;64.55
63009;BME280;49099;28.428;-16.488;2023-02-28T12:53:07;99216.97;;;20.12;64.52
63009;BME280;49099;28.428;-16.488;2023-02-28T13:02:00;99202.38;;;20.13;64.13
63009;BME280;49099;28.428;-16.488;2023-02-28T13:08:20;99214.22;;;20.35;64.37
63009;BME280;49099;28.428;-16.488;2023-02-28T13:10:19;99211.69;;;20.38;65.24
63009;BME280;49099;28.428;-16.488;2023-02-28T13:12:51;99215.00;;;20.35;66.79
63009;BME280;49099;28.428;-16.488;2023-02-28T13:15:23;99209.47;;;20.31;66.58
63009;BME280;49099;28.428;-16.488;2023-02-28T13:17:56;99207.84;;;20.30;66.54
63009;BME280;49099;28.428;-16.488;2023-02-28T13:20:47;99213.22;;;20.30;66.46
63009;BME280;49099;28.428;-16.488;2023-02-28T13:26:13;99204.19;;;20.26;67.12
63009;BME280;49099;28.428;-16.488;2023-02-28T13:29:01;99209.47;;;20.31;67.41
63009;BME280;49099;28.428;-16.488;2023-02-28T13:31:28;99202.22;;;20.41;66.81
63009;BME280;49099;28.428;-16.488;2023-02-28T13:36:30;99207.84;;;20.30;66.11
63009;BME280;49099;28.428;-16.488;2023-02-28T13:38:59;99214.22;;;20.35;66.17
63009;BME280;49099;28.428;-16.488;2023-02-28T13:49:25;99205.31;;;20.25;67.29
63009;BME280;49099;28.428;-16.488;2023-02-28T14:05:31;99180.13;;;20.70;63.93
63009;BME280;49099;28.428;-16.488;2023-02-28T14:08:05;99173.78;;;20.74;63.86
63009;BME280;49099;28.428;-16.488;2023-02-28T14:10:41;99165.84;;;20.69;63.72
63009;BME280;49099;28.428;-16.488;2023-02-28T14:15:59;99160.53;;;21.04;63.02
63009;BME280;49099;28.428;-16.488;2023-02-28T14:21:24;99146.88;;;21.09;63.56
63009;BME280;49099;28.428;-16.488;2023-02-28T14:32:37;99135.94;;;20.97;63.13
63009;BME280;49099;28.428;-16.488;2023-02-28T14:37:49;99130.66;;;20.74;63.29
63009;BME280;49099;28.428;-16.488;2023-02-28T14:40:21;99132.25;;;20.93;63.85
63009;BME280;49099;28.428;-16.488;2023-02-28T14:43:00;99129.28;;;21.03;61.88
63009;BME280;49099;28.428;-16.488;2023-02-28T14:45:30;99129.13;;;21.25;60.61
63009;BME280;49099;28.428;-16.488;2023-02-28T14:47:58;99125.31;;;21.18;61.81
63009;BME280;49099;28.428;-16.488;2023-02-28T14:50:36;99123.41;;;21.09;63.38
63009;BME280;49099;28.428;-16.488;2023-02-28T14:53:09;99126.25;;;21.13;62.13
63009;BME280;49099;28.428;-16.488;2023-02-28T14:55:44;99129.88;;;21.08;61.75
63009;BME280;49099;28.428;-16.488;2023-02-28T14:58:30;99127.38;;;21.03;64.06
63009;BME280;49099;28.428;-16.488;2023-02-28T15:01:03;99129.59;;;21.01;64.31
63009;BME280;49099;28.428;-16.488;2023-02-28T15:03:38;99124.34;;;21.05;64.48
63009;BME280;49099;28.428;-16.488;2023-02-28T15:06:13;99128.47;;;21.11;63.27
63009;BME280;49099;28.428;-16.488;2023-02-28T15:08:40;99123.88;;;21.11;64.85
63009;BME280;49099;28.428;-16.488;2023-02-28T15:11:16;99128.47;;;21.11;64.56
63009;BME280;49099;28.428;-16.488;2023-02-28T15:16:20;99129.28;;;21.03;64.64